createdAt,value
2023-04-08T00:01:30.645Z,9.88
2023-04-08T00:03:59.456Z,9.77
2023-04-08T00:06:28.396Z,9.71
2023-04-08T00:08:59.389Z,9.74
2023-04-08T00:11:27.865Z,9.66
2023-04-08T00:13:56.083Z,9.70
2023-04-08T00:16:24.838Z,9.70
2023-04-08T00:18:54.725Z,9.35
2023-04-08T00:21:23.591Z,9.84
2023-04-08T00:23:52.317Z,9.74
2023-04-08T00:26:21.806Z,9.59
2023-04-08T00:28:50.983Z,9.58
2023-04-08T00:31:19.801Z,9.41
2023-04-08T00:33:47.976Z,9.55
2023-04-08T00:36:17.812Z,9.50
2023-04-08T00:38:46.245Z,9.52
2023-04-08T00:41:14.447Z,9.62
2023-04-08T00:43:42.994Z,9.69
2023-04-08T00:46:12.042Z,9.80
2023-04-08T00:48:40.800Z,9.54
2023-04-08T00:51:09.578Z,9.45
2023-04-08T00:53:39.752Z,9.70
2023-04-08T00:56:07.901Z,9.57
2023-04-08T00:58:36.084Z,9.57
2023-04-08T01:01:12.236Z,9.46
2023-04-08T01:03:47.926Z,9.44
2023-04-08T01:06:28.019Z,9.69
2023-04-08T01:09:00.885Z,9.56
2023-04-08T01:11:31.548Z,9.55
2023-04-08T01:14:01.258Z,9.53
2023-04-08T01:16:30.358Z,9.54
2023-04-08T01:18:58.777Z,9.79
2023-04-08T01:21:30.209Z,9.55
2023-04-08T01:24:08.062Z,9.73
2023-04-08T01:26:38.538Z,9.57
2023-04-08T01:29:09.323Z,9.74
2023-04-08T01:31:38.386Z,9.39
2023-04-08T01:34:08.864Z,9.31
2023-04-08T01:36:40.348Z,9.45
2023-04-08T01:39:09.396Z,9.37
2023-04-08T01:41:39.895Z,9.48
2023-04-08T01:44:08.281Z,9.45
2023-04-08T01:46:37.346Z,9.85
2023-04-08T01:49:07.617Z,9.70
2023-04-08T01:51:38.292Z,9.48
2023-04-08T01:54:07.876Z,9.58
2023-04-08T01:56:42.658Z,9.35
2023-04-08T01:59:14.407Z,9.53
2023-04-08T02:01:44.442Z,9.35
2023-04-08T02:04:14.517Z,9.48
2023-04-08T02:06:42.760Z,9.62
2023-04-08T02:09:11.421Z,9.73
2023-04-08T02:11:41.107Z,9.57
2023-04-08T02:14:09.349Z,9.67
2023-04-08T02:16:44.315Z,9.78
2023-04-08T02:19:17.178Z,9.74
2023-04-08T02:21:50.432Z,9.57
2023-04-08T02:24:19.587Z,9.59
2023-04-08T02:26:52.173Z,9.42
2023-04-08T02:29:20.628Z,9.60
2023-04-08T02:31:51.540Z,9.54
2023-04-08T02:34:23.327Z,9.73
2023-04-08T02:36:52.349Z,9.75
2023-04-08T02:39:20.575Z,9.56
2023-04-08T02:41:50.485Z,10.00
2023-04-08T02:44:18.978Z,10.03
2023-04-08T02:46:47.059Z,9.89
2023-04-08T02:49:15.436Z,10.07
2023-04-08T02:51:43.867Z,9.97
2023-04-08T02:54:12.043Z,9.83
2023-04-08T02:56:40.657Z,9.77
2023-04-08T02:59:10.836Z,9.88
2023-04-08T03:01:39.096Z,9.90
2023-04-08T03:04:07.474Z,9.96
2023-04-08T03:06:35.675Z,10.10
2023-04-08T03:09:04.025Z,10.06
2023-04-08T03:11:32.325Z,10.11
2023-04-08T03:14:00.790Z,9.95
2023-04-08T03:16:30.830Z,9.95
2023-04-08T03:18:59.199Z,10.07
2023-04-08T03:21:28.088Z,10.10
2023-04-08T03:23:56.666Z,9.57
2023-04-08T03:26:25.031Z,9.62
2023-04-08T03:28:54.141Z,9.72
2023-04-08T03:31:22.553Z,9.78
2023-04-08T03:33:52.121Z,9.62
2023-04-08T03:36:20.434Z,9.68
2023-04-08T03:38:48.836Z,9.80
2023-04-08T03:41:17.514Z,9.64
2023-04-08T03:43:45.900Z,9.62
2023-04-08T03:46:14.408Z,9.60
2023-04-08T03:48:42.897Z,9.44
2023-04-08T03:51:12.972Z,9.68
2023-04-08T03:53:41.150Z,9.73
2023-04-08T03:56:10.136Z,9.53
2023-04-08T03:58:38.472Z,9.53
2023-04-08T04:01:06.864Z,9.57
2023-04-08T04:03:35.550Z,9.58
2023-04-08T04:06:03.968Z,9.52
2023-04-08T04:08:33.828Z,9.57
2023-04-08T04:11:02.808Z,9.29
2023-04-08T04:13:31.069Z,9.33
2023-04-08T04:15:59.392Z,9.54
2023-04-08T04:18:30.498Z,9.42
2023-04-08T04:20:58.758Z,9.31
2023-04-08T04:23:26.963Z,9.26
2023-04-08T04:25:56.966Z,9.49
2023-04-08T04:28:25.576Z,9.53
2023-04-08T04:30:56.367Z,9.43
2023-04-08T04:33:25.520Z,9.45
2023-04-08T04:35:54.514Z,9.38
2023-04-08T04:38:22.744Z,9.34
2023-04-08T04:40:51.001Z,9.66
2023-04-08T04:43:20.688Z,9.53
2023-04-08T04:45:48.784Z,9.62
2023-04-08T04:48:17.163Z,9.54
2023-04-08T04:50:45.632Z,9.44
2023-04-08T04:53:13.757Z,9.50
2023-04-08T04:55:42.079Z,9.42
2023-04-08T04:58:10.185Z,9.27
2023-04-08T05:00:40.483Z,9.21
2023-04-08T05:03:09.175Z,9.25
2023-04-08T05:05:37.604Z,9.39
2023-04-08T05:08:07.445Z,9.52
2023-04-08T05:10:35.759Z,9.36
2023-04-08T05:13:03.996Z,9.32
2023-04-08T05:15:32.067Z,9.41
2023-04-08T05:18:02.165Z,9.27
2023-04-08T05:20:30.507Z,9.19
2023-04-08T05:22:58.707Z,9.44
2023-04-08T05:25:27.406Z,9.53
2023-04-08T05:27:56.606Z,9.57
2023-04-08T05:30:25.366Z,9.60
2023-04-08T05:32:57.115Z,9.85
2023-04-08T05:35:28.709Z,9.90
2023-04-08T05:37:59.939Z,10.05
2023-04-08T05:40:28.434Z,9.82
2023-04-08T05:42:56.902Z,9.83
2023-04-08T05:45:25.469Z,9.85
2023-04-08T05:47:53.746Z,9.73
2023-04-08T05:50:22.061Z,9.72
2023-04-08T05:52:54.070Z,9.88
2023-04-08T05:55:22.383Z,9.61
2023-04-08T05:57:50.870Z,9.65
2023-04-08T06:00:20.555Z,9.91
2023-04-08T06:02:48.905Z,10.02
2023-04-08T06:05:19.346Z,10.06
2023-04-08T06:07:47.705Z,10.19
2023-04-08T06:10:17.749Z,10.16
2023-04-08T06:12:45.907Z,10.15
2023-04-08T06:15:14.132Z,10.18
2023-04-08T06:17:42.423Z,9.89
2023-04-08T06:20:11.088Z,10.37
2023-04-08T06:22:39.512Z,9.96
2023-04-08T06:25:08.339Z,10.11
2023-04-08T06:27:37.998Z,10.04
2023-04-08T06:30:07.281Z,10.00
2023-04-08T06:32:35.753Z,9.90
2023-04-08T06:35:04.362Z,9.78
2023-04-08T06:37:34.708Z,10.11
2023-04-08T06:40:03.123Z,10.30
2023-04-08T06:42:34.265Z,9.97
2023-04-08T06:45:04.090Z,10.28
2023-04-08T06:47:32.516Z,9.96
2023-04-08T06:50:00.990Z,10.01
2023-04-08T06:52:29.248Z,9.94
2023-04-08T06:54:57.879Z,10.25
2023-04-08T06:57:25.962Z,10.39
2023-04-08T06:59:54.467Z,9.88
2023-04-08T07:02:24.672Z,9.85
2023-04-08T07:04:53.520Z,9.76
2023-04-08T07:07:21.798Z,9.92
2023-04-08T07:09:50.480Z,9.82
2023-04-08T07:12:19.214Z,9.82
2023-04-08T07:14:47.473Z,10.19
2023-04-08T07:17:16.144Z,10.00
2023-04-08T07:19:46.357Z,9.80
2023-04-08T07:22:14.637Z,9.94
2023-04-08T07:24:45.692Z,10.24
2023-04-08T07:27:13.796Z,10.05
2023-04-08T07:29:42.116Z,9.95
2023-04-08T07:32:10.572Z,10.09
2023-04-08T07:34:38.809Z,10.15
2023-04-08T07:37:08.339Z,10.03
2023-04-08T07:39:36.772Z,10.14
2023-04-08T07:42:04.970Z,10.09
2023-04-08T07:44:33.468Z,10.12
2023-04-08T07:47:01.829Z,10.23
2023-04-08T07:49:30.139Z,10.25
2023-04-08T07:51:58.873Z,10.00
2023-04-08T07:54:29.178Z,10.56
2023-04-08T07:57:00.050Z,10.59
2023-04-08T07:59:29.112Z,10.39
2023-04-08T08:01:57.248Z,10.22
2023-04-08T08:04:27.162Z,10.30
2023-04-08T08:06:55.573Z,10.54
2023-04-08T08:09:23.739Z,10.38
2023-04-08T08:11:53.360Z,10.38
2023-04-08T08:14:21.919Z,10.52
2023-04-08T08:16:52.818Z,10.61
2023-04-08T08:19:21.048Z,10.48
2023-04-08T08:21:50.392Z,10.97
2023-04-08T08:24:18.549Z,10.81
2023-04-08T08:26:49.484Z,10.80
2023-04-08T08:29:19.626Z,11.26
2023-04-08T08:31:48.794Z,11.16
2023-04-08T08:34:17.053Z,11.00
2023-04-08T08:36:45.462Z,11.02
2023-04-08T08:39:13.651Z,11.14
2023-04-08T08:41:42.492Z,11.03
2023-04-08T08:44:13.071Z,11.03
2023-04-08T08:46:46.144Z,11.16
2023-04-08T08:49:14.583Z,11.32
2023-04-08T08:51:43.166Z,11.32
2023-04-08T08:54:11.532Z,11.71
2023-04-08T08:56:39.992Z,11.87
2023-04-08T08:59:08.107Z,12.04
2023-04-08T09:01:38.501Z,12.39
2023-04-08T09:04:17.330Z,12.09
2023-04-08T09:06:47.013Z,12.07
2023-04-08T09:09:15.767Z,12.22
2023-04-08T09:11:45.122Z,12.50
2023-04-08T09:14:24.339Z,12.81
2023-04-08T09:16:53.820Z,12.83
2023-04-08T09:19:23.824Z,12.88
2023-04-08T09:22:07.602Z,12.81
2023-04-08T09:24:37.243Z,12.94
2023-04-08T09:27:06.149Z,12.71
2023-04-08T09:29:38.237Z,12.69
2023-04-08T09:32:08.124Z,12.73
2023-04-08T09:34:37.791Z,12.89
2023-04-08T09:37:05.864Z,12.77
2023-04-08T09:39:34.219Z,12.31
2023-04-08T09:42:06.996Z,12.26
2023-04-08T09:44:38.246Z,12.70
2023-04-08T09:47:16.716Z,12.66
2023-04-08T09:49:52.640Z,12.70
2023-04-08T09:52:24.881Z,12.77
2023-04-08T09:54:56.875Z,12.92
2023-04-08T09:57:32.258Z,12.91
2023-04-08T10:00:06.750Z,12.96
2023-04-08T10:02:46.577Z,12.89
2023-04-08T10:05:18.576Z,13.00
2023-04-08T10:07:47.313Z,13.21
2023-04-08T10:10:16.184Z,13.34
2023-04-08T10:12:45.185Z,13.30
2023-04-08T10:15:30.042Z,13.71
2023-04-08T10:18:36.650Z,13.60
2023-04-08T10:21:06.686Z,13.61
2023-04-08T10:23:59.734Z,13.69
2023-04-08T10:26:42.410Z,13.67
2023-04-08T10:29:43.901Z,13.86
2023-04-08T10:32:30.347Z,14.28
2023-04-08T10:34:58.929Z,14.65
2023-04-08T10:37:29.101Z,14.19
2023-04-08T10:39:57.433Z,14.14
2023-04-08T10:42:29.868Z,14.12
2023-04-08T10:45:02.164Z,14.09
2023-04-08T10:47:30.501Z,14.49
2023-04-08T10:49:58.840Z,14.93
2023-04-08T10:52:28.814Z,14.83
2023-04-08T10:54:57.476Z,14.50
2023-04-08T10:57:26.438Z,14.25
2023-04-08T10:59:54.877Z,14.23
2023-04-08T11:02:23.324Z,14.45
2023-04-08T11:04:51.617Z,14.72
2023-04-08T11:07:22.043Z,14.87
2023-04-08T11:09:52.247Z,14.92
2023-04-08T11:12:21.853Z,15.09
2023-04-08T11:14:51.886Z,14.98
2023-04-08T11:17:20.868Z,15.10
2023-04-08T11:19:49.100Z,15.12
2023-04-08T11:22:18.833Z,15.26
2023-04-08T11:24:47.274Z,15.12
2023-04-08T11:27:17.301Z,15.63
2023-04-08T11:29:46.351Z,15.72
2023-04-08T11:32:14.829Z,15.68
2023-04-08T11:34:43.216Z,15.55
2023-04-08T11:37:11.463Z,15.65
2023-04-08T11:39:44.410Z,15.67
2023-04-08T11:42:29.881Z,15.85
2023-04-08T11:44:59.112Z,15.75
2023-04-08T11:47:33.729Z,15.74
2023-04-08T11:50:02.956Z,15.63
2023-04-08T11:52:45.388Z,16.16
2023-04-08T11:55:14.638Z,16.19
2023-04-08T11:57:44.281Z,16.11
2023-04-08T12:00:13.323Z,16.14
2023-04-08T12:02:44.972Z,16.63
2023-04-08T12:05:14.273Z,16.60
2023-04-08T12:07:42.979Z,16.55
2023-04-08T12:10:11.957Z,16.89
2023-04-08T12:12:40.962Z,16.91
2023-04-08T12:15:11.986Z,16.94
2023-04-08T12:17:40.253Z,16.90
2023-04-08T12:20:09.112Z,17.06
2023-04-08T12:22:37.852Z,16.82
2023-04-08T12:25:06.607Z,16.86
2023-04-08T12:27:35.203Z,16.95
2023-04-08T12:30:04.326Z,16.96
2023-04-08T12:32:34.952Z,16.89
2023-04-08T12:35:03.237Z,16.70
2023-04-08T12:37:33.508Z,16.96
2023-04-08T12:40:02.331Z,16.73
2023-04-08T12:42:30.727Z,17.06
2023-04-08T12:44:59.699Z,16.98
2023-04-08T12:47:30.942Z,17.12
2023-04-08T12:50:00.591Z,16.85
2023-04-08T12:52:28.831Z,16.72
2023-04-08T12:54:57.225Z,16.91
2023-04-08T12:57:25.829Z,16.94
2023-04-08T12:59:54.580Z,17.24
2023-04-08T13:02:23.073Z,16.69
2023-04-08T13:04:52.361Z,17.03
2023-04-08T13:07:21.903Z,16.73
2023-04-08T13:09:50.122Z,16.99
2023-04-08T13:12:18.436Z,17.09
2023-04-08T13:14:47.124Z,17.14
2023-04-08T13:17:15.560Z,17.15
2023-04-08T13:19:43.838Z,16.91
2023-04-08T13:22:11.961Z,17.04
2023-04-08T13:24:41.719Z,16.80
2023-04-08T13:27:09.997Z,16.99
2023-04-08T13:29:38.140Z,17.23
2023-04-08T13:32:06.727Z,17.01
2023-04-08T13:34:35.024Z,16.98
2023-04-08T13:37:03.469Z,17.04
2023-04-08T13:39:31.992Z,17.18
2023-04-08T13:42:01.853Z,17.54
2023-04-08T13:44:30.129Z,17.43
2023-04-08T13:46:58.862Z,17.37
2023-04-08T13:49:27.774Z,17.54
2023-04-08T13:51:55.982Z,17.47
2023-04-08T13:54:24.327Z,17.77
2023-04-08T13:56:52.513Z,17.45
2023-04-08T13:59:22.583Z,17.39
2023-04-08T14:01:54.340Z,17.53
2023-04-08T14:04:23.227Z,17.78
2023-04-08T14:06:53.340Z,17.41
2023-04-08T14:09:22.329Z,17.33
2023-04-08T14:11:50.673Z,17.09
2023-04-08T14:14:19.016Z,17.37
2023-04-08T14:16:48.554Z,17.72
2023-04-08T14:19:16.940Z,17.35
2023-04-08T14:21:45.047Z,17.18
2023-04-08T14:24:13.184Z,17.08
2023-04-08T14:26:41.501Z,17.59
2023-04-08T14:29:10.188Z,17.64
2023-04-08T14:31:38.460Z,17.36
2023-04-08T14:34:08.115Z,17.35
2023-04-08T14:36:36.402Z,17.41
2023-04-08T14:39:04.817Z,17.32
2023-04-08T14:41:33.543Z,17.13
2023-04-08T14:44:01.979Z,17.80
2023-04-08T14:46:30.797Z,17.80
2023-04-08T14:48:59.449Z,17.47
2023-04-08T14:51:29.192Z,17.74
2023-04-08T14:53:57.547Z,17.92
2023-04-08T14:56:26.022Z,17.41
2023-04-08T14:58:54.658Z,17.55
2023-04-08T15:01:23.287Z,17.74
2023-04-08T15:03:52.038Z,17.40
2023-04-08T15:06:21.905Z,17.43
2023-04-08T15:08:52.290Z,17.33
2023-04-08T15:11:21.074Z,17.37
2023-04-08T15:13:49.711Z,17.38
2023-04-08T15:16:18.028Z,17.24
2023-04-08T15:18:46.312Z,17.49
2023-04-08T15:21:14.511Z,17.39
2023-04-08T15:23:44.242Z,17.54
2023-04-08T15:26:16.980Z,17.60
2023-04-08T15:28:45.326Z,17.60
2023-04-08T15:31:13.849Z,17.29
2023-04-08T15:33:43.248Z,17.37
2023-04-08T15:36:11.742Z,17.35
2023-04-08T15:38:40.100Z,17.27
2023-04-08T15:41:08.205Z,17.60
2023-04-08T15:43:37.943Z,17.66
2023-04-08T15:46:06.332Z,17.25
2023-04-08T15:48:34.747Z,17.30
2023-04-08T15:51:08.618Z,17.43
2023-04-08T15:53:37.547Z,17.10
2023-04-08T15:56:06.702Z,16.95
2023-04-08T15:58:35.421Z,17.11
2023-04-08T16:01:05.493Z,17.27
2023-04-08T16:03:33.774Z,17.32
2023-04-08T16:06:02.505Z,17.18
2023-04-08T16:08:32.441Z,17.31
2023-04-08T16:11:02.531Z,17.26
2023-04-08T16:13:31.379Z,17.08
2023-04-08T16:16:02.557Z,17.25
2023-04-08T16:18:32.464Z,17.36
2023-04-08T16:21:00.620Z,17.37
2023-04-08T16:23:29.122Z,17.07
2023-04-08T16:25:57.917Z,17.04
2023-04-08T16:28:27.808Z,17.03
2023-04-08T16:30:56.453Z,16.86
2023-04-08T16:33:30.057Z,16.86
2023-04-08T16:36:00.867Z,16.92
2023-04-08T16:38:29.322Z,17.00
2023-04-08T16:41:00.108Z,16.94
2023-04-08T16:43:31.249Z,16.78
2023-04-08T16:45:59.716Z,16.76
2023-04-08T16:48:28.414Z,16.65
2023-04-08T16:50:57.861Z,16.75
2023-04-08T16:53:27.823Z,17.08
2023-04-08T16:55:56.366Z,17.01
2023-04-08T16:58:24.502Z,16.89
2023-04-08T17:00:52.761Z,17.07
2023-04-08T17:03:21.029Z,16.87
2023-04-08T17:05:51.906Z,16.88
2023-04-08T17:08:21.554Z,16.78
2023-04-08T17:10:51.187Z,16.65
2023-04-08T17:13:19.334Z,16.67
2023-04-08T17:15:48.424Z,16.54
2023-04-08T17:18:16.730Z,16.59
2023-04-08T17:20:45.071Z,16.67
2023-04-08T17:23:14.305Z,16.35
2023-04-08T17:25:42.943Z,16.28
2023-04-08T17:28:12.936Z,16.77
2023-04-08T17:30:41.463Z,16.81
2023-04-08T17:33:09.737Z,16.64
2023-04-08T17:35:37.946Z,16.32
2023-04-08T17:38:06.246Z,16.41
2023-04-08T17:40:34.665Z,16.27
2023-04-08T17:43:03.030Z,16.27
2023-04-08T17:45:33.147Z,16.21
2023-04-08T17:48:02.044Z,16.01
2023-04-08T17:50:30.333Z,15.88
2023-04-08T17:52:58.642Z,15.80
2023-04-08T17:55:27.110Z,15.63
2023-04-08T17:57:55.998Z,15.52
2023-04-08T18:00:24.904Z,15.56
2023-04-08T18:02:54.722Z,15.53
2023-04-08T18:05:23.051Z,15.36
2023-04-08T18:07:53.120Z,15.23
2023-04-08T18:10:23.287Z,15.21
2023-04-08T18:12:57.801Z,15.33
2023-04-08T18:15:37.064Z,14.83
2023-04-08T18:18:06.800Z,14.96
2023-04-08T18:20:37.452Z,15.04
2023-04-08T18:23:05.783Z,15.10
2023-04-08T18:25:34.629Z,15.02
2023-04-08T18:28:02.979Z,15.02
2023-04-08T18:30:31.308Z,14.97
2023-04-08T18:32:59.553Z,14.80
2023-04-08T18:35:29.364Z,14.85
2023-04-08T18:38:00.184Z,14.80
2023-04-08T18:40:29.813Z,14.81
2023-04-08T18:43:03.740Z,14.97
2023-04-08T18:45:32.186Z,14.88
2023-04-08T18:48:00.657Z,14.89
2023-04-08T18:50:30.208Z,14.83
2023-04-08T18:53:01.516Z,14.53
2023-04-08T18:55:29.758Z,14.39
2023-04-08T18:58:01.021Z,14.51
2023-04-08T19:00:29.289Z,14.47
2023-04-08T19:02:58.121Z,14.47
2023-04-08T19:05:26.776Z,14.56
2023-04-08T19:07:56.866Z,14.51
2023-04-08T19:10:25.628Z,14.29
2023-04-08T19:12:53.908Z,14.35
2023-04-08T19:15:22.304Z,14.13
2023-04-08T19:17:50.537Z,14.07
2023-04-08T19:20:18.995Z,14.07
2023-04-08T19:22:48.757Z,14.02
2023-04-08T19:25:19.091Z,14.01
2023-04-08T19:27:48.006Z,14.11
2023-04-08T19:30:16.673Z,14.01
2023-04-08T19:32:45.960Z,14.19
2023-04-08T19:35:14.387Z,14.09
2023-04-08T19:37:43.226Z,14.18
2023-04-08T19:40:11.963Z,14.06
2023-04-08T19:42:41.678Z,14.18
2023-04-08T19:45:11.022Z,13.86
2023-04-08T19:47:39.993Z,13.75
2023-04-08T19:50:09.678Z,13.71
2023-04-08T19:52:38.030Z,13.77
2023-04-08T19:55:07.101Z,13.71
2023-04-08T19:57:35.822Z,13.92
2023-04-08T20:00:06.418Z,13.97
2023-04-08T20:02:34.773Z,13.91
2023-04-08T20:05:03.263Z,13.89
2023-04-08T20:07:31.806Z,13.83
2023-04-08T20:10:00.333Z,13.73
2023-04-08T20:12:30.623Z,13.78
2023-04-08T20:14:58.989Z,13.51
2023-04-08T20:17:28.621Z,13.52
2023-04-08T20:19:56.849Z,13.34
2023-04-08T20:22:25.894Z,13.08
2023-04-08T20:24:54.360Z,12.83
2023-04-08T20:27:22.973Z,12.95
2023-04-08T20:29:57.038Z,13.08
2023-04-08T20:32:25.451Z,13.04
2023-04-08T20:34:55.786Z,13.16
2023-04-08T20:37:24.461Z,13.25
2023-04-08T20:39:52.569Z,13.41
2023-04-08T20:42:21.106Z,13.19
2023-04-08T20:44:49.351Z,12.85
2023-04-08T20:47:17.434Z,12.90
2023-04-08T20:49:46.387Z,12.91
2023-04-08T20:52:16.198Z,12.89
2023-04-08T20:54:44.428Z,12.87
2023-04-08T20:57:12.813Z,12.88
2023-04-08T20:59:41.369Z,12.92
2023-04-08T21:02:10.288Z,13.12
2023-04-08T21:04:38.983Z,13.26
2023-04-08T21:07:07.269Z,13.28
2023-04-08T21:09:36.893Z,13.31
2023-04-08T21:12:05.508Z,13.12
2023-04-08T21:14:34.998Z,12.91
2023-04-08T21:17:03.152Z,12.72
2023-04-08T21:19:31.294Z,12.69
2023-04-08T21:21:59.766Z,12.76
2023-04-08T21:24:28.495Z,12.62
2023-04-08T21:26:58.837Z,12.39
2023-04-08T21:29:27.814Z,12.59
2023-04-08T21:31:59.238Z,12.71
2023-04-08T21:34:28.060Z,12.81
2023-04-08T21:36:56.935Z,12.57
2023-04-08T21:39:26.352Z,12.74
2023-04-08T21:41:54.425Z,12.70
2023-04-08T21:44:24.137Z,12.55
2023-04-08T21:46:52.262Z,12.36
2023-04-08T21:49:20.426Z,12.66
2023-04-08T21:51:49.161Z,12.71
2023-04-08T21:54:17.535Z,12.83
2023-04-08T21:56:45.656Z,12.64
2023-04-08T21:59:14.072Z,12.56
2023-04-08T22:01:43.778Z,12.30
2023-04-08T22:04:12.234Z,12.34
2023-04-08T22:06:41.166Z,12.35
2023-04-08T22:09:09.268Z,12.47
2023-04-08T22:11:37.518Z,12.65
2023-04-08T22:14:05.895Z,12.72
2023-04-08T22:16:34.034Z,12.56
2023-04-08T22:19:03.770Z,12.51
2023-04-08T22:21:32.359Z,12.32
2023-04-08T22:24:00.825Z,12.35
2023-04-08T22:26:28.948Z,12.25
2023-04-08T22:28:57.263Z,12.23
2023-04-08T22:31:25.688Z,12.32
2023-04-08T22:33:53.866Z,12.37
2023-04-08T22:36:23.680Z,12.40
2023-04-08T22:38:52.614Z,12.37
2023-04-08T22:41:22.484Z,12.40
2023-04-08T22:43:52.039Z,12.30
2023-04-08T22:46:20.418Z,12.08
2023-04-08T22:48:49.448Z,12.10
2023-04-08T22:51:18.148Z,12.13
2023-04-08T22:53:47.807Z,12.25
2023-04-08T22:56:16.094Z,12.21
2023-04-08T22:58:45.211Z,12.29
2023-04-08T23:01:14.696Z,12.09
2023-04-08T23:03:43.155Z,12.21
2023-04-08T23:06:11.975Z,12.18
2023-04-08T23:08:40.246Z,12.06
2023-04-08T23:11:09.988Z,12.12
2023-04-08T23:13:38.411Z,12.00
2023-04-08T23:16:06.926Z,12.10
2023-04-08T23:18:35.087Z,12.12
2023-04-08T23:21:04.054Z,12.15
2023-04-08T23:23:32.901Z,11.91
2023-04-08T23:26:01.109Z,11.63
2023-04-08T23:28:30.877Z,11.56
2023-04-08T23:30:59.061Z,11.71
2023-04-08T23:33:27.303Z,11.77
2023-04-08T23:35:55.956Z,11.64
2023-04-08T23:38:24.226Z,11.53
2023-04-08T23:40:52.976Z,11.57
2023-04-08T23:43:21.432Z,11.54
2023-04-08T23:45:50.978Z,11.52
2023-04-08T23:48:19.180Z,11.40
2023-04-08T23:50:51.709Z,11.47
2023-04-08T23:53:20.186Z,11.37
2023-04-08T23:55:48.903Z,11.40
2023-04-08T23:58:17.297Z,11.17
